createdAt,value
2022-09-07T00:01:56.228Z,64.18
2022-09-07T00:04:22.997Z,63.16
2022-09-07T00:06:49.728Z,62.58
2022-09-07T00:09:18.104Z,62.63
2022-09-07T00:11:45.133Z,62.43
2022-09-07T00:14:11.839Z,62.07
2022-09-07T00:16:38.590Z,62.53
2022-09-07T00:19:05.340Z,60.74
2022-09-07T00:21:32.226Z,59.99
2022-09-07T00:23:59.244Z,60.19
2022-09-07T00:26:28.951Z,59.70
2022-09-07T00:29:00.808Z,59.37
2022-09-07T00:31:29.364Z,58.93
2022-09-07T00:33:59.217Z,58.49
2022-09-07T00:36:27.067Z,59.16
2022-09-07T00:38:54.186Z,59.55
2022-09-07T00:41:22.930Z,59.98
2022-09-07T00:43:58.600Z,59.11
2022-09-07T00:46:30.655Z,59.85
2022-09-07T00:49:09.378Z,59.64
2022-09-07T00:51:40.779Z,62.23
2022-09-07T00:54:26.812Z,64.96
2022-09-07T00:56:54.030Z,65.02
2022-09-07T00:59:28.869Z,63.48
2022-09-07T01:01:55.925Z,63.29
2022-09-07T01:04:24.398Z,64.64
2022-09-07T01:06:55.150Z,63.84
2022-09-07T01:09:25.545Z,65.06
2022-09-07T01:11:54.746Z,63.94
2022-09-07T01:14:27.946Z,63.91
2022-09-07T01:17:16.776Z,64.02
2022-09-07T01:20:22.132Z,63.96
2022-09-07T01:23:34.331Z,64.07
2022-09-07T01:26:34.147Z,65.30
2022-09-07T01:29:18.161Z,66.27
2022-09-07T01:31:50.768Z,65.63
2022-09-07T01:34:33.573Z,65.42
2022-09-07T01:37:03.213Z,66.07
2022-09-07T01:39:51.158Z,65.67
2022-09-07T01:42:25.233Z,66.90
2022-09-07T01:45:02.088Z,64.87
2022-09-07T01:47:33.899Z,64.58
2022-09-07T01:50:18.323Z,65.07
2022-09-07T01:52:56.547Z,65.68
2022-09-07T01:55:38.861Z,65.82
2022-09-07T01:58:14.757Z,64.74
2022-09-07T02:00:51.361Z,64.97
2022-09-07T02:03:35.206Z,64.21
2022-09-07T02:06:19.988Z,64.30
2022-09-07T02:09:02.623Z,63.59
2022-09-07T02:11:49.673Z,63.29
2022-09-07T02:14:24.936Z,62.63
2022-09-07T02:17:14.529Z,63.72
2022-09-07T02:19:50.922Z,64.37
2022-09-07T02:22:26.681Z,64.31
2022-09-07T02:24:59.710Z,64.44
2022-09-07T02:27:45.517Z,65.72
2022-09-07T02:30:12.776Z,65.77
2022-09-07T02:32:39.475Z,66.55
2022-09-07T02:35:06.794Z,67.00
2022-09-07T02:37:35.663Z,64.55
2022-09-07T02:40:02.912Z,63.83
2022-09-07T02:42:33.866Z,64.05
2022-09-07T02:45:05.897Z,63.45
2022-09-07T02:48:11.426Z,64.10
2022-09-07T02:50:56.273Z,64.32
2022-09-07T02:53:59.215Z,64.72
2022-09-07T02:56:25.796Z,66.36
2022-09-07T02:59:12.490Z,65.06
2022-09-07T03:02:06.634Z,65.89
2022-09-07T03:05:00.952Z,65.36
2022-09-07T03:07:43.963Z,65.69
2022-09-07T03:10:14.514Z,65.63
2022-09-07T03:12:49.676Z,65.01
2022-09-07T03:15:20.689Z,64.66
2022-09-07T03:17:47.708Z,64.19
2022-09-07T03:20:15.617Z,64.56
2022-09-07T03:22:42.808Z,64.09
2022-09-07T03:25:10.977Z,63.20
2022-09-07T03:27:37.757Z,63.81
2022-09-07T03:30:06.458Z,62.95
2022-09-07T03:32:35.602Z,63.02
2022-09-07T03:35:05.786Z,63.42
2022-09-07T03:37:32.530Z,62.43
2022-09-07T03:39:59.200Z,61.75
2022-09-07T03:42:25.947Z,62.71
2022-09-07T03:44:52.576Z,63.04
2022-09-07T03:47:19.214Z,65.40
2022-09-07T03:49:45.918Z,66.82
2022-09-07T03:52:12.553Z,65.89
2022-09-07T03:54:39.852Z,64.89
2022-09-07T03:57:06.842Z,63.93
2022-09-07T03:59:33.727Z,64.12
2022-09-07T04:02:00.962Z,65.86
2022-09-07T04:04:28.339Z,65.94
2022-09-07T04:06:55.142Z,64.98
2022-09-07T04:09:21.828Z,65.51
2022-09-07T04:11:48.864Z,64.25
2022-09-07T04:14:16.753Z,64.04
2022-09-07T04:16:43.881Z,65.96
2022-09-07T04:19:10.542Z,66.04
2022-09-07T04:21:37.274Z,66.67
2022-09-07T04:24:03.965Z,66.63
2022-09-07T04:26:33.431Z,64.95
2022-09-07T04:29:00.952Z,66.96
2022-09-07T04:31:27.676Z,68.73
2022-09-07T04:33:55.930Z,67.35
2022-09-07T04:36:23.491Z,68.07
2022-09-07T04:38:58.018Z,68.32
2022-09-07T04:41:24.802Z,65.47
2022-09-07T04:43:57.356Z,67.43
2022-09-07T04:46:33.372Z,67.54
2022-09-07T04:49:02.705Z,66.43
2022-09-07T04:51:31.774Z,66.45
2022-09-07T04:54:01.010Z,64.90
2022-09-07T04:56:28.317Z,64.14
2022-09-07T04:58:55.394Z,63.68
2022-09-07T05:01:24.391Z,64.73
2022-09-07T05:03:52.140Z,64.96
2022-09-07T05:06:21.744Z,63.09
2022-09-07T05:08:51.632Z,63.79
2022-09-07T05:11:23.807Z,63.97
2022-09-07T05:13:53.023Z,62.81
2022-09-07T05:16:23.006Z,63.47
2022-09-07T05:18:55.595Z,64.68
2022-09-07T05:21:25.457Z,64.28
2022-09-07T05:23:55.816Z,64.47
2022-09-07T05:26:25.263Z,64.16
2022-09-07T05:28:51.995Z,62.40
2022-09-07T05:31:23.617Z,63.74
2022-09-07T05:36:39.848Z,64.94
2022-09-07T05:39:07.746Z,64.90
2022-09-07T05:41:34.859Z,65.35
2022-09-07T05:46:48.430Z,66.57
2022-09-07T05:49:15.106Z,66.80
2022-09-07T05:51:41.798Z,64.40
2022-09-07T05:54:08.457Z,65.29
2022-09-07T05:56:35.992Z,65.16
2022-09-07T05:59:03.392Z,65.81
2022-09-07T06:01:30.882Z,64.79
2022-09-07T06:03:57.748Z,64.13
2022-09-07T06:06:24.476Z,63.30
2022-09-07T06:08:53.483Z,62.65
2022-09-07T06:11:22.950Z,64.40
2022-09-07T06:13:50.999Z,63.47
2022-09-07T06:16:19.080Z,63.26
2022-09-07T06:18:48.409Z,65.73
2022-09-07T06:21:18.202Z,63.46
2022-09-07T06:23:46.538Z,62.16
2022-09-07T06:26:14.557Z,62.64
2022-09-07T06:28:45.270Z,61.84
2022-09-07T06:31:17.938Z,61.51
2022-09-07T06:33:45.555Z,62.37
2022-09-07T06:36:18.246Z,61.68
2022-09-07T06:38:45.420Z,61.83
2022-09-07T06:44:04.186Z,60.80
2022-09-07T06:49:17.611Z,60.62
2022-09-07T06:51:45.921Z,61.79
2022-09-07T06:56:59.264Z,59.23
2022-09-07T06:59:25.950Z,58.03
2022-09-07T07:01:52.598Z,57.75
2022-09-07T07:04:19.286Z,57.65
2022-09-07T07:06:45.891Z,57.68
2022-09-07T07:09:12.605Z,58.02
2022-09-07T07:11:39.522Z,55.69
2022-09-07T07:14:06.142Z,55.63
2022-09-07T07:16:32.930Z,54.39
2022-09-07T07:18:59.688Z,52.60
2022-09-07T07:21:28.968Z,51.89
2022-09-07T07:24:04.998Z,51.84
2022-09-07T07:26:34.210Z,50.69
2022-09-07T07:29:02.304Z,51.03
2022-09-07T07:31:30.291Z,49.17
2022-09-07T07:33:57.023Z,48.84
2022-09-07T07:36:26.300Z,48.20
2022-09-07T07:44:16.300Z,46.78
2022-09-07T07:46:42.978Z,47.70
2022-09-07T07:49:09.694Z,48.18
2022-09-07T07:54:23.218Z,48.85
2022-09-07T07:56:49.873Z,49.80
2022-09-07T07:59:16.497Z,50.28
2022-09-07T08:01:43.330Z,49.32
2022-09-07T08:04:10.128Z,49.38
2022-09-07T08:06:36.981Z,49.01
2022-09-07T08:09:03.682Z,49.50
2022-09-07T08:11:30.305Z,48.71
2022-09-07T08:13:56.911Z,47.57
2022-09-07T08:16:23.552Z,48.20
2022-09-07T08:18:50.194Z,47.52
2022-09-07T08:21:17.057Z,46.65
2022-09-07T08:23:44.443Z,46.02
2022-09-07T08:26:11.385Z,47.04
2022-09-07T08:28:40.888Z,47.50
2022-09-07T08:31:11.150Z,48.56
2022-09-07T08:33:38.922Z,47.59
2022-09-07T08:36:08.312Z,46.72
2022-09-07T08:38:37.152Z,46.96
2022-09-07T08:41:23.976Z,48.38
2022-09-07T08:44:01.795Z,48.73
2022-09-07T08:46:51.654Z,49.42
2022-09-07T08:49:55.254Z,49.89
2022-09-07T08:52:29.073Z,50.90
2022-09-07T08:55:14.975Z,48.39
2022-09-07T08:57:52.297Z,48.63
2022-09-07T09:00:20.723Z,48.50
2022-09-07T09:03:28.747Z,45.90
2022-09-07T09:05:52.311Z,48.56
2022-09-07T09:09:00.323Z,47.57
2022-09-07T09:11:43.401Z,47.47
2022-09-07T09:17:26.736Z,46.02
2022-09-07T09:20:32.201Z,48.16
2022-09-07T09:23:04.961Z,48.27
2022-09-07T09:25:35.077Z,48.01
2022-09-07T09:28:01.844Z,48.63
2022-09-07T09:30:28.578Z,48.01
2022-09-07T09:33:18.489Z,46.81
2022-09-07T09:35:48.226Z,45.82
2022-09-07T09:38:33.289Z,46.09
2022-09-07T09:41:12.289Z,46.36
2022-09-07T09:43:46.876Z,46.02
2022-09-07T09:46:28.470Z,48.02
2022-09-07T09:49:23.788Z,47.42
2022-09-07T09:54:50.796Z,49.18
2022-09-07T09:59:04.825Z,47.14
2022-09-07T10:00:35.397Z,48.03
2022-09-07T10:06:06.369Z,47.60
2022-09-07T10:08:33.592Z,49.68
2022-09-07T10:11:06.551Z,47.56
2022-09-07T10:13:36.867Z,48.61
2022-09-07T10:16:07.204Z,49.49
2022-09-07T10:18:54.349Z,49.24
2022-09-07T10:21:26.690Z,48.27
2022-09-07T10:24:14.937Z,46.61
2022-09-07T10:26:42.912Z,46.36
2022-09-07T10:29:30.728Z,46.90
2022-09-07T10:32:06.903Z,46.04
2022-09-07T10:34:42.625Z,46.24
2022-09-07T10:37:40.034Z,46.69
2022-09-07T10:40:21.047Z,47.83
2022-09-07T10:43:21.105Z,47.98
2022-09-07T10:49:23.925Z,48.50
2022-09-07T10:52:10.880Z,47.41
2022-09-07T10:55:01.484Z,48.05
2022-09-07T10:57:32.406Z,48.55
2022-09-07T11:00:10.126Z,48.88
2022-09-07T11:06:10.709Z,50.34
2022-09-07T11:09:16.576Z,50.17
2022-09-07T11:12:14.921Z,49.26
2022-09-07T11:14:50.205Z,46.87
2022-09-07T11:17:27.533Z,48.44
2022-09-07T11:20:13.936Z,47.85
2022-09-07T11:23:18.060Z,49.10
2022-09-07T11:26:06.881Z,49.20
2022-09-07T11:31:49.015Z,51.69
2022-09-07T11:34:26.010Z,51.67
2022-09-07T11:37:06.442Z,52.59
2022-09-07T11:39:48.029Z,53.66
2022-09-07T11:45:37.154Z,54.37
2022-09-07T11:48:38.554Z,55.69
2022-09-07T11:51:22.450Z,55.92
2022-09-07T11:54:17.971Z,54.83
2022-09-07T11:56:53.633Z,58.31
2022-09-07T11:59:28.157Z,58.73
2022-09-07T12:01:54.872Z,58.68
2022-09-07T12:04:43.555Z,58.12
2022-09-07T12:07:19.141Z,57.09
2022-09-07T12:10:04.694Z,56.35
2022-09-07T12:12:52.902Z,56.85
2022-09-07T12:15:27.634Z,55.42
2022-09-07T12:18:26.574Z,54.03
2022-09-07T12:20:53.731Z,55.06
2022-09-07T12:23:28.439Z,56.64
2022-09-07T12:26:38.161Z,57.89
2022-09-07T12:29:20.157Z,58.36
2022-09-07T12:34:35.937Z,58.22
2022-09-07T12:37:36.865Z,57.24
2022-09-07T12:40:29.455Z,56.26
2022-09-07T12:43:17.144Z,54.89
2022-09-07T12:45:43.649Z,55.66
2022-09-07T12:48:16.269Z,55.43
2022-09-07T12:51:04.483Z,54.39
2022-09-07T12:53:50.597Z,53.98
2022-09-07T12:56:43.080Z,51.97
2022-09-07T12:59:43.417Z,52.92
2022-09-07T13:02:10.037Z,53.69
2022-09-07T13:05:01.285Z,52.04
2022-09-07T13:08:29.434Z,50.93
2022-09-07T13:10:56.514Z,52.36
2022-09-07T13:16:14.549Z,50.22
2022-09-07T13:18:43.706Z,49.16
2022-09-07T13:21:10.317Z,49.39
2022-09-07T13:23:42.295Z,50.68
2022-09-07T13:26:13.067Z,51.41
2022-09-07T13:28:56.220Z,51.85
2022-09-07T13:32:03.649Z,51.47
2022-09-07T13:34:33.265Z,51.29
2022-09-07T13:37:16.367Z,50.41
2022-09-07T13:39:46.896Z,52.96
2022-09-07T13:42:24.397Z,52.92
2022-09-07T13:44:58.886Z,51.22
2022-09-07T13:47:59.437Z,53.33
2022-09-07T13:50:52.653Z,53.14
2022-09-07T13:53:45.321Z,53.54
2022-09-07T13:56:30.511Z,52.99
2022-09-07T13:58:57.413Z,54.13
2022-09-07T14:01:28.924Z,55.03
2022-09-07T14:04:02.260Z,55.59
2022-09-07T14:06:32.844Z,54.40
2022-09-07T14:09:14.600Z,54.03
2022-09-07T14:11:53.898Z,54.59
2022-09-07T14:14:31.165Z,53.95
2022-09-07T14:17:00.540Z,54.64
2022-09-07T14:19:49.752Z,53.91
2022-09-07T14:22:21.857Z,51.55
2022-09-07T14:24:57.647Z,53.96
2022-09-07T14:27:35.895Z,53.24
2022-09-07T14:30:21.300Z,54.42
2022-09-07T14:32:53.423Z,53.36
2022-09-07T14:35:23.535Z,52.73
2022-09-07T14:37:51.190Z,53.14
2022-09-07T14:40:22.018Z,54.27
2022-09-07T14:42:50.736Z,54.12
2022-09-07T14:45:20.092Z,55.97
2022-09-07T14:47:50.478Z,56.43
2022-09-07T14:50:30.873Z,57.55
2022-09-07T14:53:41.204Z,56.98
2022-09-07T14:56:10.457Z,56.25
2022-09-07T14:58:37.261Z,55.89
2022-09-07T15:04:01.392Z,55.60
2022-09-07T15:09:30.467Z,56.34
2022-09-07T15:12:06.220Z,55.86
2022-09-07T15:14:32.959Z,54.28
2022-09-07T15:19:48.882Z,56.74
2022-09-07T15:22:18.556Z,55.44
2022-09-07T15:24:51.328Z,56.58
2022-09-07T15:27:29.231Z,57.43
2022-09-07T15:29:58.231Z,56.68
2022-09-07T15:32:24.842Z,55.93
2022-09-07T15:34:51.532Z,55.73
2022-09-07T15:41:10.464Z,57.03
2022-09-07T15:43:33.853Z,57.47
2022-09-07T15:46:04.629Z,58.97
2022-09-07T15:48:31.528Z,57.97
2022-09-07T15:52:04.684Z,58.40
2022-09-07T15:54:11.651Z,59.42
2022-09-07T15:56:38.853Z,58.16
2022-09-07T15:59:06.309Z,57.34
2022-09-07T16:04:19.862Z,58.37
2022-09-07T16:06:48.293Z,58.42
2022-09-07T16:09:15.209Z,58.49
2022-09-07T16:11:42.999Z,58.96
2022-09-07T16:14:09.748Z,57.77
2022-09-07T16:19:23.232Z,55.97
2022-09-07T16:21:49.875Z,55.06
2022-09-07T16:24:16.547Z,54.65
2022-09-07T16:26:43.190Z,53.62
2022-09-07T16:29:09.791Z,55.00
2022-09-07T16:31:37.100Z,54.24
2022-09-07T16:34:04.303Z,55.25
2022-09-07T16:36:31.038Z,53.89
2022-09-07T16:39:00.338Z,54.32
2022-09-07T16:41:30.342Z,56.46
2022-09-07T16:43:58.350Z,55.69
2022-09-07T16:46:28.771Z,55.25
2022-09-07T16:48:55.445Z,56.66
2022-09-07T16:51:23.858Z,58.12
2022-09-07T16:53:53.555Z,58.66
2022-09-07T16:56:26.837Z,58.99
2022-09-07T16:59:05.074Z,59.49
2022-09-07T17:01:34.924Z,60.22
2022-09-07T17:04:05.431Z,59.07
2022-09-07T17:06:34.827Z,58.87
2022-09-07T17:09:01.484Z,58.74
2022-09-07T17:11:34.225Z,59.41
2022-09-07T17:14:01.677Z,58.29
2022-09-07T17:16:31.211Z,57.73
2022-09-07T17:21:46.336Z,59.88
2022-09-07T17:24:13.171Z,60.84
2022-09-07T17:26:42.124Z,62.25
2022-09-07T17:29:12.767Z,63.00
2022-09-07T17:34:26.232Z,61.23
2022-09-07T17:36:52.837Z,60.66
2022-09-07T17:39:20.003Z,60.70
2022-09-07T17:41:48.723Z,62.68
2022-09-07T17:44:15.877Z,64.76
2022-09-07T17:46:42.695Z,63.30
2022-09-07T17:49:10.538Z,62.58
2022-09-07T17:51:37.189Z,62.76
2022-09-07T17:54:10.177Z,63.27
2022-09-07T17:56:37.763Z,63.44
2022-09-07T18:01:51.448Z,63.54
2022-09-07T18:04:18.161Z,64.73
2022-09-07T18:06:44.956Z,64.28
2022-09-07T18:09:12.546Z,64.74
2022-09-07T18:11:48.174Z,65.37
2022-09-07T18:14:15.661Z,65.26
2022-09-07T18:16:45.119Z,66.69
2022-09-07T18:19:12.942Z,66.43
2022-09-07T18:21:41.501Z,65.30
2022-09-07T18:24:14.256Z,65.58
2022-09-07T18:26:41.096Z,65.03
2022-09-07T18:29:25.795Z,63.30
2022-09-07T18:31:54.611Z,61.95
2022-09-07T18:34:21.852Z,61.37
2022-09-07T18:36:48.477Z,64.22
2022-09-07T18:39:15.097Z,65.37
2022-09-07T18:41:41.773Z,66.53
2022-09-07T18:45:26.995Z,63.56
2022-09-07T18:46:55.286Z,63.27
2022-09-07T18:49:21.963Z,62.05
2022-09-07T18:54:35.440Z,62.70
2022-09-07T18:57:02.062Z,60.61
2022-09-07T18:59:30.771Z,62.21
2022-09-07T19:02:01.562Z,62.30
2022-09-07T19:05:49.536Z,64.69
2022-09-07T19:07:17.763Z,62.39
2022-09-07T19:09:44.467Z,67.41
2022-09-07T19:12:11.105Z,71.49
2022-09-07T19:14:37.892Z,67.14
2022-09-07T19:17:04.549Z,68.24
2022-09-07T19:19:31.139Z,69.83
2022-09-07T19:21:57.741Z,72.22
2022-09-07T19:24:24.521Z,74.10
2022-09-07T19:26:58.065Z,74.51
2022-09-07T19:29:27.542Z,75.09
2022-09-07T19:31:54.223Z,75.32
2022-09-07T19:34:20.884Z,75.44
2022-09-07T19:36:47.547Z,73.50
2022-09-07T19:39:14.385Z,72.12
2022-09-07T19:41:41.034Z,72.68
2022-09-07T19:44:08.354Z,71.59
2022-09-07T19:46:34.980Z,70.84
2022-09-07T19:49:02.127Z,71.01
2022-09-07T19:51:30.104Z,71.22
2022-09-07T19:53:59.225Z,70.79
2022-09-07T19:56:25.867Z,69.71
2022-09-07T19:58:52.678Z,69.82
2022-09-07T20:01:22.854Z,70.49
2022-09-07T20:03:57.692Z,70.29
2022-09-07T20:06:27.715Z,69.59
2022-09-07T20:08:56.497Z,69.13
2022-09-07T20:11:25.437Z,69.44
2022-09-07T20:13:52.270Z,68.15
2022-09-07T20:16:19.694Z,67.83
2022-09-07T20:18:49.538Z,67.57
2022-09-07T20:21:19.428Z,66.71
2022-09-07T20:23:46.711Z,66.78
2022-09-07T20:26:16.462Z,67.66
2022-09-07T20:28:44.162Z,67.59
2022-09-07T20:31:14.815Z,67.55
2022-09-07T20:33:43.880Z,66.34
2022-09-07T20:36:16.305Z,66.97
2022-09-07T20:38:45.881Z,67.50
2022-09-07T20:41:42.017Z,68.08
2022-09-07T20:44:11.848Z,68.14
2022-09-07T20:46:39.135Z,68.41
2022-09-07T20:49:08.755Z,68.74
2022-09-07T20:51:35.650Z,68.09
2022-09-07T20:54:02.512Z,67.82
2022-09-07T20:56:32.372Z,67.87
2022-09-07T20:59:02.358Z,67.76
2022-09-07T21:01:31.534Z,67.84
2022-09-07T21:04:00.669Z,68.59
2022-09-07T21:06:29.431Z,67.88
2022-09-07T21:08:56.634Z,66.76
2022-09-07T21:11:26.490Z,67.07
2022-09-07T21:14:10.762Z,65.84
2022-09-07T21:16:38.531Z,64.53
2022-09-07T21:19:07.653Z,64.73
2022-09-07T21:21:38.979Z,65.02
2022-09-07T21:24:14.659Z,64.81
2022-09-07T21:26:41.430Z,66.55
2022-09-07T21:29:13.391Z,66.77
2022-09-07T21:31:40.132Z,66.73
2022-09-07T21:34:06.804Z,66.49
2022-09-07T21:36:33.640Z,65.26
2022-09-07T21:39:00.338Z,62.85
2022-09-07T21:41:27.406Z,61.33
2022-09-07T21:44:00.113Z,62.17
2022-09-07T21:46:30.016Z,65.55
2022-09-07T21:48:57.977Z,64.77
2022-09-07T21:51:26.723Z,64.51
2022-09-07T21:53:58.642Z,73.27
2022-09-07T21:56:46.677Z,76.53
2022-09-07T21:59:13.665Z,83.67
2022-09-07T22:01:40.393Z,85.34
2022-09-07T22:04:07.164Z,86.84
2022-09-07T22:06:35.086Z,87.22
2022-09-07T22:09:03.780Z,87.50
2022-09-07T22:11:31.257Z,86.76
2022-09-07T22:14:01.127Z,88.88
2022-09-07T22:16:28.780Z,88.17
2022-09-07T22:18:55.669Z,85.88
2022-09-07T22:21:28.382Z,86.97
2022-09-07T22:23:57.891Z,87.83
2022-09-07T22:26:27.829Z,87.86
2022-09-07T22:28:58.006Z,86.56
2022-09-07T22:31:36.995Z,87.66
2022-09-07T22:34:10.061Z,87.41
2022-09-07T22:36:40.231Z,88.46
2022-09-07T22:39:11.450Z,89.01
2022-09-07T22:41:39.363Z,88.05
2022-09-07T22:44:09.852Z,85.01
2022-09-07T22:46:39.290Z,84.74
2022-09-07T22:49:07.367Z,84.76
2022-09-07T22:51:34.346Z,81.91
2022-09-07T22:54:00.985Z,80.26
2022-09-07T22:56:30.355Z,78.65
2022-09-07T22:59:00.456Z,80.17
2022-09-07T23:01:29.948Z,80.09
2022-09-07T23:03:57.858Z,81.21
2022-09-07T23:06:30.593Z,82.92
2022-09-07T23:09:00.019Z,83.65
2022-09-07T23:11:27.259Z,83.64
2022-09-07T23:13:58.803Z,84.26
2022-09-07T23:16:26.738Z,82.59
2022-09-07T23:18:54.522Z,79.56
2022-09-07T23:21:21.699Z,80.35
2022-09-07T23:23:57.243Z,81.49
2022-09-07T23:26:26.347Z,82.02
2022-09-07T23:28:55.529Z,83.22
2022-09-07T23:31:23.311Z,81.66
2022-09-07T23:33:50.532Z,81.15
2022-09-07T23:36:17.802Z,81.98
2022-09-07T23:38:45.968Z,81.63
2022-09-07T23:41:12.973Z,80.71
2022-09-07T23:43:40.133Z,80.93
2022-09-07T23:46:07.074Z,80.58
2022-09-07T23:48:33.741Z,81.40
2022-09-07T23:51:00.387Z,80.19
2022-09-07T23:53:27.111Z,80.27
2022-09-07T23:55:53.880Z,80.33
2022-09-07T23:58:22.757Z,79.38
